createdAt,value
2022-08-26T00:01:41.580Z,4.97
2022-08-26T00:06:46.021Z,4.82
2022-08-26T00:09:16.253Z,5.30
2022-08-26T00:11:47.356Z,4.40
2022-08-26T00:14:15.375Z,5.28
2022-08-26T00:16:47.864Z,5.65
2022-08-26T00:19:17.036Z,5.22
2022-08-26T00:21:44.060Z,5.50
2022-08-26T00:24:10.983Z,5.15
2022-08-26T00:26:37.804Z,5.00
2022-08-26T00:29:05.104Z,5.20
2022-08-26T00:31:32.476Z,5.03
2022-08-26T00:33:59.771Z,5.57
2022-08-26T00:36:29.786Z,4.75
2022-08-26T00:38:57.471Z,5.10
2022-08-26T00:41:24.342Z,5.22
2022-08-26T00:43:51.735Z,5.68
2022-08-26T00:46:31.398Z,5.55
2022-08-26T00:49:12.096Z,5.00
2022-08-26T00:51:49.853Z,5.70
2022-08-26T00:54:19.944Z,6.05
2022-08-26T00:57:00.309Z,5.72
2022-08-26T00:59:32.966Z,5.63
2022-08-26T01:02:00.735Z,5.72
2022-08-26T01:04:31.531Z,5.93
2022-08-26T01:06:58.859Z,5.22
2022-08-26T01:09:26.043Z,5.22
2022-08-26T01:11:56.921Z,5.47
2022-08-26T01:14:26.515Z,5.67
2022-08-26T01:16:53.411Z,6.05
2022-08-26T01:19:31.598Z,5.40
2022-08-26T01:22:05.422Z,6.13
2022-08-26T01:24:32.772Z,6.63
2022-08-26T01:27:05.833Z,6.40
2022-08-26T01:29:36.161Z,6.13
2022-08-26T01:32:05.018Z,6.40
2022-08-26T01:34:37.649Z,5.47
2022-08-26T01:37:18.282Z,5.82
2022-08-26T01:39:48.956Z,5.82
2022-08-26T01:42:18.323Z,5.80
2022-08-26T01:45:05.779Z,5.65
2022-08-26T01:47:36.172Z,5.82
2022-08-26T01:50:11.010Z,6.50
2022-08-26T01:52:42.837Z,6.00
2022-08-26T01:55:12.677Z,6.15
2022-08-26T01:57:40.328Z,6.55
2022-08-26T02:00:14.909Z,6.22
2022-08-26T02:02:46.412Z,6.47
2022-08-26T02:05:19.451Z,6.53
2022-08-26T02:07:47.974Z,6.90
2022-08-26T02:10:15.737Z,7.05
2022-08-26T02:12:43.521Z,5.95
2022-08-26T02:15:12.611Z,6.05
2022-08-26T02:17:45.326Z,6.57
2022-08-26T02:20:15.765Z,6.78
2022-08-26T02:22:42.819Z,5.93
2022-08-26T02:25:11.936Z,6.20
2022-08-26T02:27:39.012Z,6.88
2022-08-26T02:30:17.517Z,6.75
2022-08-26T02:32:44.768Z,7.00
2022-08-26T02:35:13.970Z,7.05
2022-08-26T02:37:47.942Z,6.78
2022-08-26T02:40:19.303Z,7.05
2022-08-26T02:42:48.872Z,6.70
2022-08-26T02:45:16.758Z,7.25
2022-08-26T02:47:51.260Z,6.72
2022-08-26T02:50:18.138Z,6.47
2022-08-26T02:52:45.003Z,6.38
2022-08-26T02:55:12.581Z,5.95
2022-08-26T02:57:39.657Z,7.18
2022-08-26T03:00:09.456Z,6.57
2022-08-26T03:02:36.567Z,6.85
2022-08-26T03:05:04.451Z,6.40
2022-08-26T03:07:31.531Z,6.85
2022-08-26T03:09:58.900Z,6.10
2022-08-26T03:12:26.230Z,6.88
2022-08-26T03:14:53.366Z,7.63
2022-08-26T03:17:21.114Z,7.70
2022-08-26T03:19:49.831Z,7.43
2022-08-26T03:22:19.776Z,7.68
2022-08-26T03:24:47.383Z,7.32
2022-08-26T03:27:14.438Z,6.88
2022-08-26T03:30:00.359Z,7.18
2022-08-26T03:32:28.080Z,6.93
2022-08-26T03:34:56.480Z,7.10
2022-08-26T03:37:23.373Z,7.10
2022-08-26T03:39:50.291Z,7.43
2022-08-26T03:42:17.543Z,8.52
2022-08-26T03:44:48.839Z,7.68
2022-08-26T03:47:15.902Z,8.00
2022-08-26T03:49:42.897Z,8.10
2022-08-26T03:52:10.470Z,7.90
2022-08-26T03:54:37.404Z,8.50
2022-08-26T03:57:04.379Z,8.50
2022-08-26T03:59:32.267Z,8.15
2022-08-26T04:01:59.118Z,8.10
2022-08-26T04:04:25.934Z,7.95
2022-08-26T04:06:58.408Z,7.95
2022-08-26T04:09:27.462Z,7.07
2022-08-26T04:11:55.606Z,7.32
2022-08-26T04:14:25.387Z,7.97
2022-08-26T04:16:53.535Z,7.70
2022-08-26T04:19:23.899Z,7.72
2022-08-26T04:21:53.339Z,7.25
2022-08-26T04:24:22.746Z,7.35
2022-08-26T04:26:50.358Z,8.07
2022-08-26T04:29:20.753Z,7.90
2022-08-26T04:31:48.312Z,7.10
2022-08-26T04:34:15.995Z,8.63
2022-08-26T04:36:43.735Z,8.20
2022-08-26T04:39:12.555Z,8.30
2022-08-26T04:41:40.022Z,8.00
2022-08-26T04:44:07.753Z,7.78
2022-08-26T04:46:34.980Z,7.40
2022-08-26T04:49:01.874Z,7.68
2022-08-26T04:51:29.164Z,7.07
2022-08-26T04:53:57.621Z,7.25
2022-08-26T04:56:32.584Z,6.72
2022-08-26T04:59:01.307Z,7.80
2022-08-26T05:01:31.555Z,7.90
2022-08-26T05:03:58.966Z,7.13
2022-08-26T05:06:26.147Z,7.95
2022-08-26T05:08:54.225Z,7.25
2022-08-26T05:11:22.153Z,8.65
2022-08-26T05:13:49.131Z,8.40
2022-08-26T05:16:17.060Z,8.65
2022-08-26T05:18:45.566Z,8.77
2022-08-26T05:21:25.046Z,8.02
2022-08-26T05:23:52.880Z,7.30
2022-08-26T05:26:23.075Z,7.80
2022-08-26T05:28:51.119Z,8.10
2022-08-26T05:31:25.002Z,7.35
2022-08-26T05:33:52.435Z,8.25
2022-08-26T05:36:22.292Z,7.15
2022-08-26T05:38:49.749Z,7.60
2022-08-26T05:41:18.090Z,9.70
2022-08-26T05:43:45.773Z,8.57
2022-08-26T05:46:13.417Z,8.70
2022-08-26T05:48:44.252Z,7.88
2022-08-26T05:51:12.981Z,7.78
2022-08-26T05:53:43.823Z,7.10
2022-08-26T05:56:24.959Z,8.35
2022-08-26T05:58:52.116Z,7.93
2022-08-26T06:01:26.033Z,8.15
2022-08-26T06:03:56.815Z,7.45
2022-08-26T06:06:35.273Z,7.78
2022-08-26T06:09:04.524Z,8.02
2022-08-26T06:11:32.927Z,8.02
2022-08-26T06:14:04.304Z,7.57
2022-08-26T06:16:34.692Z,8.10
2022-08-26T06:19:03.464Z,7.30
2022-08-26T06:21:39.317Z,8.38
2022-08-26T06:24:27.591Z,8.05
2022-08-26T06:27:01.285Z,8.23
2022-08-26T06:29:30.424Z,8.20
2022-08-26T06:31:58.270Z,7.53
2022-08-26T06:34:30.444Z,7.43
2022-08-26T06:37:01.414Z,8.10
2022-08-26T06:39:32.017Z,7.82
2022-08-26T06:41:59.710Z,10.82
2022-08-26T06:44:27.271Z,8.45
2022-08-26T06:46:54.303Z,7.85
2022-08-26T06:49:26.702Z,8.15
2022-08-26T06:51:58.344Z,7.70
2022-08-26T06:54:26.826Z,7.45
2022-08-26T06:56:53.969Z,7.50
2022-08-26T06:59:21.855Z,8.20
2022-08-26T07:01:49.804Z,8.10
2022-08-26T07:04:20.283Z,7.95
2022-08-26T07:06:52.884Z,7.75
2022-08-26T07:09:24.811Z,7.93
2022-08-26T07:11:52.390Z,8.52
2022-08-26T07:14:21.293Z,7.30
2022-08-26T07:16:49.548Z,7.80
2022-08-26T07:19:27.601Z,8.25
2022-08-26T07:22:03.438Z,8.55
2022-08-26T07:24:32.278Z,8.23
2022-08-26T07:27:01.221Z,9.40
2022-08-26T07:29:29.207Z,8.18
2022-08-26T07:31:56.332Z,9.05
2022-08-26T07:34:24.126Z,8.05
2022-08-26T07:36:51.589Z,9.00
2022-08-26T07:39:19.021Z,7.65
2022-08-26T07:41:47.314Z,8.10
2022-08-26T07:44:15.040Z,7.63
2022-08-26T07:46:42.178Z,7.63
2022-08-26T07:49:12.263Z,8.48
2022-08-26T07:51:39.724Z,8.50
2022-08-26T07:54:07.029Z,7.68
2022-08-26T07:56:34.087Z,8.27
2022-08-26T07:59:01.606Z,7.95
2022-08-26T08:01:31.440Z,7.68
2022-08-26T08:04:00.382Z,8.43
2022-08-26T08:06:29.238Z,7.03
2022-08-26T08:08:56.238Z,7.70
2022-08-26T08:11:24.350Z,8.02
2022-08-26T08:13:56.116Z,12.23
2022-08-26T08:16:25.349Z,7.43
2022-08-26T08:18:53.487Z,8.57
2022-08-26T08:21:23.617Z,8.30
2022-08-26T08:23:53.101Z,8.77
2022-08-26T08:26:20.095Z,9.25
2022-08-26T08:28:48.160Z,7.55
2022-08-26T08:34:18.101Z,7.40
2022-08-26T08:36:46.334Z,7.47
2022-08-26T08:39:13.629Z,7.65
2022-08-26T08:41:56.386Z,7.72
2022-08-26T08:44:28.948Z,7.90
2022-08-26T08:47:00.824Z,8.55
2022-08-26T08:49:28.384Z,8.57
2022-08-26T08:52:10.140Z,7.85
2022-08-26T08:54:38.565Z,7.70
2022-08-26T08:57:11.020Z,6.70
2022-08-26T08:59:52.026Z,7.07
2022-08-26T09:02:42.283Z,7.57
2022-08-26T09:05:31.680Z,13.25
2022-08-26T09:08:15.773Z,6.85
2022-08-26T09:10:54.016Z,7.53
2022-08-26T09:13:25.456Z,7.72
2022-08-26T09:16:20.206Z,7.25
2022-08-26T09:18:55.699Z,7.22
2022-08-26T09:21:23.986Z,7.15
2022-08-26T09:23:55.810Z,6.82
2022-08-26T09:26:45.976Z,7.45
2022-08-26T09:29:26.746Z,8.20
2022-08-26T09:32:22.087Z,7.47
2022-08-26T09:35:01.172Z,7.32
2022-08-26T09:40:18.875Z,7.40
2022-08-26T09:42:48.207Z,8.02
2022-08-26T09:45:15.730Z,7.60
2022-08-26T09:47:47.053Z,7.63
2022-08-26T09:50:36.677Z,8.27
2022-08-26T09:53:13.157Z,7.97
2022-08-26T09:55:43.264Z,8.10
2022-08-26T09:58:34.624Z,7.40
2022-08-26T10:01:08.621Z,7.07
2022-08-26T10:03:38.364Z,7.30
2022-08-26T10:06:28.739Z,8.25
2022-08-26T10:08:59.086Z,7.43
2022-08-26T10:11:53.757Z,8.00
2022-08-26T10:14:24.906Z,8.27
2022-08-26T10:17:02.800Z,7.68
2022-08-26T10:19:55.783Z,7.27
2022-08-26T10:22:59.308Z,8.27
2022-08-26T10:25:32.705Z,7.22
2022-08-26T10:28:19.538Z,6.63
2022-08-26T10:30:54.884Z,7.30
2022-08-26T10:33:23.295Z,7.65
2022-08-26T10:35:52.265Z,7.05
2022-08-26T10:38:28.802Z,7.38
2022-08-26T10:41:11.278Z,6.70
2022-08-26T10:43:55.046Z,7.30
2022-08-26T10:46:27.226Z,6.90
2022-08-26T10:49:10.503Z,6.95
2022-08-26T10:52:00.896Z,7.13
2022-08-26T10:54:37.219Z,8.35
2022-08-26T10:57:25.720Z,7.20
2022-08-26T11:00:29.445Z,7.63
2022-08-26T11:03:16.152Z,7.40
2022-08-26T11:06:22.361Z,7.65
2022-08-26T11:08:53.561Z,7.53
2022-08-26T11:11:41.939Z,8.73
2022-08-26T11:14:28.473Z,8.05
2022-08-26T11:16:58.696Z,7.72
2022-08-26T11:20:02.625Z,7.32
2022-08-26T11:22:47.397Z,7.60
2022-08-26T11:25:29.752Z,6.90
2022-08-26T11:27:59.808Z,7.22
2022-08-26T11:30:41.116Z,6.97
2022-08-26T11:33:09.197Z,6.28
2022-08-26T11:35:47.162Z,7.28
2022-08-26T11:38:22.821Z,6.72
2022-08-26T11:41:20.790Z,6.82
2022-08-26T11:43:52.124Z,6.63
2022-08-26T11:46:37.461Z,5.95
2022-08-26T11:49:07.111Z,7.78
2022-08-26T11:51:39.701Z,5.95
2022-08-26T11:54:17.246Z,6.10
2022-08-26T11:56:57.446Z,5.25
2022-08-26T12:02:13.698Z,5.45
2022-08-26T12:04:45.147Z,4.43
2022-08-26T12:07:12.827Z,5.00
2022-08-26T12:10:02.310Z,4.80
2022-08-26T12:12:35.140Z,5.40
2022-08-26T12:15:10.523Z,4.68
2022-08-26T12:17:39.279Z,4.63
2022-08-26T12:20:30.388Z,4.57
2022-08-26T12:23:00.091Z,4.78
2022-08-26T12:25:28.063Z,5.03
2022-08-26T12:28:05.464Z,5.03
2022-08-26T12:30:32.590Z,5.13
2022-08-26T12:33:22.127Z,5.05
2022-08-26T12:35:54.193Z,4.40
2022-08-26T12:38:24.365Z,4.07
2022-08-26T12:40:51.255Z,4.60
2022-08-26T12:43:45.314Z,4.28
2022-08-26T12:46:17.969Z,4.70
2022-08-26T12:48:48.665Z,5.00
2022-08-26T12:51:28.169Z,5.00
2022-08-26T12:53:56.156Z,5.10
2022-08-26T12:56:29.101Z,4.60
2022-08-26T12:59:06.049Z,4.20
2022-08-26T13:01:44.320Z,4.60
2022-08-26T13:04:38.841Z,4.97
2022-08-26T13:07:26.285Z,4.50
2022-08-26T13:09:55.596Z,4.57
2022-08-26T13:12:31.268Z,4.72
2022-08-26T13:15:00.166Z,5.13
2022-08-26T13:17:28.802Z,4.25
2022-08-26T13:20:00.037Z,4.55
2022-08-26T13:22:29.753Z,5.03
2022-08-26T13:24:57.226Z,4.93
2022-08-26T13:27:26.236Z,5.50
2022-08-26T13:29:54.338Z,6.22
2022-08-26T13:32:22.579Z,5.93
2022-08-26T13:34:55.622Z,5.55
2022-08-26T13:37:31.493Z,6.20
2022-08-26T13:40:04.752Z,5.68
2022-08-26T13:42:31.688Z,6.10
2022-08-26T13:44:59.699Z,5.20
2022-08-26T13:47:27.576Z,5.55
2022-08-26T13:49:55.204Z,5.40
2022-08-26T13:52:29.150Z,4.60
2022-08-26T13:55:01.544Z,4.90
2022-08-26T13:57:30.039Z,4.78
2022-08-26T13:59:59.088Z,4.30
2022-08-26T14:02:27.451Z,4.25
2022-08-26T14:04:55.245Z,4.68
2022-08-26T14:07:22.664Z,3.80
2022-08-26T14:09:49.683Z,3.38
2022-08-26T14:12:17.212Z,3.80
2022-08-26T14:14:43.983Z,3.50
2022-08-26T14:17:13.983Z,3.95
2022-08-26T14:19:44.997Z,3.33
2022-08-26T14:22:11.757Z,5.45
2022-08-26T14:24:38.508Z,3.67
2022-08-26T14:27:05.287Z,4.05
2022-08-26T14:29:32.102Z,4.05
2022-08-26T14:32:02.537Z,3.50
2022-08-26T14:34:29.359Z,3.83
2022-08-26T14:36:56.190Z,5.93
2022-08-26T14:39:22.967Z,10.32
2022-08-26T14:41:55.043Z,5.65
2022-08-26T14:44:25.633Z,5.47
2022-08-26T14:46:53.436Z,5.40
2022-08-26T14:49:21.768Z,5.70
2022-08-26T14:51:49.250Z,5.80
2022-08-26T14:54:18.152Z,5.55
2022-08-26T14:56:50.169Z,7.30
2022-08-26T14:59:21.179Z,4.70
2022-08-26T15:04:15.455Z,3.38
2022-08-26T15:06:42.836Z,3.42
2022-08-26T15:09:10.428Z,3.65
2022-08-26T15:11:37.557Z,3.58
2022-08-26T15:14:04.780Z,3.58
2022-08-26T15:16:31.850Z,4.38
2022-08-26T15:19:00.387Z,4.90
2022-08-26T15:21:27.308Z,4.65
2022-08-26T15:23:54.788Z,4.97
2022-08-26T15:26:23.197Z,4.20
2022-08-26T15:28:51.050Z,3.67
2022-08-26T15:31:20.154Z,3.80
2022-08-26T15:33:47.427Z,3.85
2022-08-26T15:36:14.412Z,4.30
2022-08-26T15:38:42.433Z,5.03
2022-08-26T15:41:10.340Z,5.07
2022-08-26T15:43:38.142Z,4.47
2022-08-26T15:46:10.330Z,3.63
2022-08-26T15:48:38.376Z,4.45
2022-08-26T15:51:06.322Z,3.70
2022-08-26T15:53:34.747Z,6.55
2022-08-26T15:56:02.071Z,5.80
2022-08-26T15:58:29.704Z,5.63
2022-08-26T16:00:57.561Z,5.40
2022-08-26T16:03:24.684Z,3.75
2022-08-26T16:05:51.879Z,4.22
2022-08-26T16:08:18.943Z,8.80
2022-08-26T16:10:50.443Z,7.57
2022-08-26T16:13:19.798Z,10.70
2022-08-26T16:15:48.211Z,9.23
2022-08-26T16:18:15.916Z,9.30
2022-08-26T16:21:12.840Z,7.43
2022-08-26T16:23:38.479Z,7.25
2022-08-26T16:26:10.831Z,8.65
2022-08-26T16:28:38.570Z,8.35
2022-08-26T16:31:06.822Z,8.70
2022-08-26T16:33:33.653Z,9.70
2022-08-26T16:36:00.625Z,10.27
2022-08-26T16:38:27.411Z,11.77
2022-08-26T16:40:54.206Z,13.13
2022-08-26T16:43:21.189Z,10.55
2022-08-26T16:45:47.992Z,11.85
2022-08-26T16:48:14.912Z,12.25
2022-08-26T16:50:41.988Z,12.57
2022-08-26T16:53:16.253Z,15.15
2022-08-26T16:55:47.528Z,11.07
2022-08-26T16:58:14.900Z,9.20
2022-08-26T17:00:42.213Z,9.20
2022-08-26T17:03:09.982Z,8.45
2022-08-26T17:05:37.063Z,9.05
2022-08-26T17:08:05.381Z,8.00
2022-08-26T17:10:32.871Z,7.03
2022-08-26T17:13:00.063Z,5.97
2022-08-26T17:15:27.128Z,5.32
2022-08-26T17:17:54.859Z,5.05
2022-08-26T17:20:23.952Z,6.55
2022-08-26T17:22:53.345Z,8.70
2022-08-26T17:25:30.131Z,10.90
2022-08-26T17:27:57.284Z,9.45
2022-08-26T17:30:25.912Z,11.80
2022-08-26T17:32:54.414Z,12.48
2022-08-26T17:35:21.486Z,12.35
2022-08-26T17:37:48.486Z,11.30
2022-08-26T17:40:19.343Z,12.38
2022-08-26T17:42:46.664Z,13.00
2022-08-26T17:45:14.136Z,13.18
2022-08-26T17:47:41.328Z,11.98
2022-08-26T17:50:11.413Z,11.73
2022-08-26T17:52:39.514Z,12.65
2022-08-26T17:55:08.065Z,11.88
2022-08-26T17:57:40.676Z,11.43
2022-08-26T18:00:13.709Z,11.68
2022-08-26T18:05:08.456Z,9.90
2022-08-26T18:07:43.570Z,10.43
2022-08-26T18:10:14.639Z,10.57
2022-08-26T18:12:41.888Z,10.43
2022-08-26T18:15:10.174Z,10.07
2022-08-26T18:17:39.055Z,11.00
2022-08-26T18:20:10.992Z,9.63
2022-08-26T18:22:37.890Z,9.25
2022-08-26T18:25:06.620Z,8.77
2022-08-26T18:27:36.074Z,10.13
2022-08-26T18:30:06.533Z,9.70
2022-08-26T18:32:33.398Z,9.70
2022-08-26T18:35:00.157Z,9.45
2022-08-26T18:37:30.921Z,9.10
2022-08-26T18:39:59.529Z,9.77
2022-08-26T18:42:27.339Z,9.43
2022-08-26T18:44:54.381Z,8.90
2022-08-26T18:47:21.331Z,9.18
2022-08-26T18:49:48.622Z,9.20
2022-08-26T18:52:15.826Z,9.32
2022-08-26T18:54:43.145Z,10.77
2022-08-26T18:57:10.020Z,10.35
2022-08-26T18:59:36.920Z,12.77
2022-08-26T19:02:04.070Z,9.95
2022-08-26T19:04:30.958Z,10.82
2022-08-26T19:06:58.375Z,11.02
2022-08-26T19:09:27.885Z,10.02
2022-08-26T19:14:23.291Z,10.32
2022-08-26T19:16:52.500Z,9.38
2022-08-26T19:19:23.783Z,9.05
2022-08-26T19:21:51.647Z,10.30
2022-08-26T19:24:19.623Z,9.27
2022-08-26T19:26:57.030Z,9.50
2022-08-26T19:29:28.127Z,9.75
2022-08-26T19:31:55.201Z,9.40
2022-08-26T19:34:22.183Z,10.38
2022-08-26T19:36:50.459Z,8.82
2022-08-26T19:39:17.261Z,10.88
2022-08-26T19:41:44.384Z,10.18
2022-08-26T19:44:33.952Z,11.32
2022-08-26T19:47:01.166Z,13.30
2022-08-26T19:49:28.285Z,12.07
2022-08-26T19:51:55.165Z,11.95
2022-08-26T19:54:25.251Z,11.95
2022-08-26T19:56:52.019Z,12.82
2022-08-26T19:59:18.839Z,12.63
2022-08-26T20:01:45.842Z,13.90
2022-08-26T20:04:27.866Z,12.70
2022-08-26T20:06:57.556Z,12.30
2022-08-26T20:09:25.867Z,13.30
2022-08-26T20:11:53.934Z,13.15
2022-08-26T20:14:24.448Z,13.18
2022-08-26T20:16:51.289Z,12.02
2022-08-26T20:19:37.609Z,12.23
2022-08-26T20:22:05.702Z,13.48
2022-08-26T20:24:34.173Z,12.88
2022-08-26T20:27:06.826Z,12.95
2022-08-26T20:29:34.894Z,13.68
2022-08-26T20:32:02.598Z,12.63
2022-08-26T20:34:30.117Z,15.55
2022-08-26T20:36:56.921Z,13.45
2022-08-26T20:39:23.811Z,13.88
2022-08-26T20:41:50.731Z,13.13
2022-08-26T20:44:17.840Z,13.63
2022-08-26T20:46:44.836Z,12.85
2022-08-26T20:49:13.228Z,14.65
2022-08-26T20:51:41.254Z,14.65
2022-08-26T20:54:08.276Z,13.43
2022-08-26T20:56:36.074Z,14.15
2022-08-26T20:59:04.883Z,13.23
2022-08-26T21:01:34.722Z,14.38
2022-08-26T21:04:04.488Z,13.38
2022-08-26T21:06:33.804Z,13.52
2022-08-26T21:09:02.281Z,13.27
2022-08-26T21:11:29.550Z,11.90
2022-08-26T21:14:06.934Z,13.57
2022-08-26T21:16:43.818Z,13.55
2022-08-26T21:19:13.922Z,13.32
2022-08-26T21:21:41.398Z,12.00
2022-08-26T21:24:08.715Z,12.57
2022-08-26T21:26:35.646Z,13.75
2022-08-26T21:29:02.820Z,12.88
2022-08-26T21:31:31.902Z,12.80
2022-08-26T21:33:59.508Z,14.15
2022-08-26T21:36:26.704Z,13.43
2022-08-26T21:38:56.202Z,16.75
2022-08-26T21:41:23.028Z,16.27
2022-08-26T21:43:51.551Z,16.10
2022-08-26T21:46:21.894Z,15.35
2022-08-26T21:48:56.418Z,15.70
2022-08-26T21:51:25.566Z,15.73
2022-08-26T21:53:52.939Z,16.02
2022-08-26T21:56:21.029Z,15.73
2022-08-26T21:58:48.449Z,17.33
2022-08-26T22:01:19.072Z,15.93
2022-08-26T22:03:46.669Z,15.02
2022-08-26T22:06:16.642Z,14.23
2022-08-26T22:08:43.608Z,16.67
2022-08-26T22:11:10.709Z,14.85
2022-08-26T22:13:39.498Z,15.35
2022-08-26T22:16:07.418Z,14.43
2022-08-26T22:18:35.300Z,15.00
2022-08-26T22:21:15.744Z,16.23
2022-08-26T22:23:43.377Z,16.63
2022-08-26T22:26:12.214Z,16.73
2022-08-26T22:28:39.374Z,19.27
2022-08-26T22:31:11.410Z,19.65
2022-08-26T22:33:39.888Z,20.23
2022-08-26T22:36:06.928Z,20.00
2022-08-26T22:38:34.313Z,19.77
2022-08-26T22:41:02.595Z,18.83
2022-08-26T22:43:31.542Z,20.73
2022-08-26T22:45:58.420Z,24.33
2022-08-26T22:48:26.788Z,22.70
2022-08-26T22:51:00.122Z,23.20
2022-08-26T22:53:27.582Z,24.23
2022-08-26T22:55:54.650Z,23.63
2022-08-26T22:58:30.195Z,24.13
2022-08-26T23:00:59.337Z,24.17
2022-08-26T23:03:27.423Z,25.92
2022-08-26T23:05:55.462Z,25.95
2022-08-26T23:08:24.719Z,24.55
2022-08-26T23:10:52.368Z,25.23
2022-08-26T23:13:20.140Z,25.88
2022-08-26T23:15:47.129Z,26.35
2022-08-26T23:18:15.049Z,26.63
2022-08-26T23:20:42.419Z,24.38
2022-08-26T23:23:09.614Z,28.52
2022-08-26T23:25:36.494Z,25.88
2022-08-26T23:28:03.777Z,25.70
2022-08-26T23:30:33.039Z,28.00
2022-08-26T23:33:00.716Z,27.17
2022-08-26T23:35:28.693Z,30.58
2022-08-26T23:37:56.118Z,30.63
2022-08-26T23:40:32.297Z,34.33
2022-08-26T23:43:00.947Z,35.70
2022-08-26T23:45:28.084Z,40.03
2022-08-26T23:47:55.136Z,37.90
2022-08-26T23:50:44.908Z,38.15
2022-08-26T23:53:19.312Z,39.08
2022-08-26T23:55:48.386Z,38.08
2022-08-26T23:58:17.329Z,40.50
